createdAt,value
2019-01-04T00:01:56.445Z,11.27
2019-01-04T00:04:28.739Z,9.55
2019-01-04T00:06:58.744Z,10.55
2019-01-04T00:09:28.805Z,10.13
2019-01-04T00:11:58.773Z,9.60
2019-01-04T00:14:28.734Z,10.23
2019-01-04T00:16:58.913Z,10.32
2019-01-04T00:19:29.267Z,9.68
2019-01-04T00:21:59.342Z,11.03
2019-01-04T00:24:29.966Z,10.38
2019-01-04T00:26:59.844Z,9.83
2019-01-04T00:29:30.017Z,9.28
2019-01-04T00:32:00.036Z,9.68
2019-01-04T00:34:29.984Z,9.00
2019-01-04T00:37:00.365Z,10.93
2019-01-04T00:39:30.214Z,10.07
2019-01-04T00:41:59.992Z,8.63
2019-01-04T00:44:30.156Z,9.23
2019-01-04T00:47:00.346Z,11.12
2019-01-04T00:49:30.615Z,9.38
2019-01-04T00:52:00.879Z,9.43
2019-01-04T00:54:31.292Z,10.23
2019-01-04T00:57:19.992Z,10.48
2019-01-04T01:00:30.604Z,9.18
2019-01-04T01:03:41.755Z,10.28
2019-01-04T01:06:40.688Z,11.38
2019-01-04T01:09:50.191Z,10.98
2019-01-04T01:13:22.196Z,9.73
2019-01-04T01:16:23.436Z,10.17
2019-01-04T01:19:21.343Z,10.70
2019-01-04T01:22:24.109Z,10.63
2019-01-04T01:25:34.161Z,12.00
2019-01-04T01:28:46.551Z,10.50
2019-01-04T01:31:57.717Z,10.48
2019-01-04T01:34:59.621Z,10.23
2019-01-04T01:38:25.436Z,10.13
2019-01-04T01:41:26.136Z,11.33
2019-01-04T01:44:54.996Z,10.97
2019-01-04T01:47:38.411Z,9.80
2019-01-04T01:50:48.269Z,9.50
2019-01-04T01:53:18.335Z,10.60
2019-01-04T01:55:48.505Z,9.95
2019-01-04T01:58:18.570Z,9.80
2019-01-04T02:00:48.644Z,9.27
2019-01-04T02:03:18.600Z,11.00
2019-01-04T02:05:48.676Z,9.73
2019-01-04T02:08:18.648Z,11.57
2019-01-04T02:10:48.601Z,9.00
2019-01-04T02:13:18.449Z,11.53
2019-01-04T02:15:48.428Z,9.63
2019-01-04T02:18:18.291Z,9.63
2019-01-04T02:20:48.461Z,10.70
2019-01-04T02:23:18.636Z,10.53
2019-01-04T02:25:48.725Z,9.55
2019-01-04T02:28:18.758Z,11.48
2019-01-04T02:30:49.012Z,9.60
2019-01-04T02:33:19.308Z,10.23
2019-01-04T02:35:49.192Z,9.90
2019-01-04T02:38:19.290Z,9.18
2019-01-04T02:40:49.304Z,11.22
2019-01-04T02:43:19.418Z,11.08
2019-01-04T02:45:49.449Z,11.43
2019-01-04T02:48:19.404Z,10.40
2019-01-04T02:50:49.390Z,8.88
2019-01-04T02:53:19.597Z,11.00
2019-01-04T02:55:49.504Z,9.80
2019-01-04T02:58:19.717Z,10.10
2019-01-04T03:00:49.812Z,11.97
2019-01-04T03:03:19.706Z,9.75
2019-01-04T03:05:49.616Z,9.40
2019-01-04T03:08:19.602Z,10.13
2019-01-04T03:10:50.007Z,11.10
2019-01-04T03:13:20.027Z,9.85
2019-01-04T03:15:50.133Z,9.80
2019-01-04T03:18:20.072Z,11.67
2019-01-04T03:20:50.232Z,10.65
2019-01-04T03:23:20.196Z,10.30
2019-01-04T03:25:50.169Z,9.85
2019-01-04T03:28:20.120Z,9.65
2019-01-04T03:30:50.296Z,9.63
2019-01-04T03:33:20.390Z,10.48
2019-01-04T03:35:50.553Z,11.08
2019-01-04T03:38:20.531Z,10.03
2019-01-04T03:40:50.380Z,9.23
2019-01-04T03:43:20.423Z,10.28
2019-01-04T03:45:50.629Z,10.70
2019-01-04T03:48:20.794Z,11.03
2019-01-04T03:50:50.942Z,11.10
2019-01-04T03:53:21.217Z,10.93
2019-01-04T03:55:51.393Z,9.35
2019-01-04T03:58:21.566Z,9.83
2019-01-04T04:00:51.581Z,9.93
2019-01-04T04:03:21.624Z,10.60
2019-01-04T04:05:51.713Z,10.48
2019-01-04T04:08:21.875Z,10.32
2019-01-04T04:10:52.044Z,9.83
2019-01-04T04:13:22.137Z,9.93
2019-01-04T04:15:52.084Z,8.83
2019-01-04T04:18:22.199Z,10.10
2019-01-04T04:20:52.334Z,9.95
2019-01-04T04:23:22.489Z,10.48
2019-01-04T04:25:52.595Z,10.72
2019-01-04T04:28:24.693Z,10.50
2019-01-04T04:30:54.746Z,10.82
2019-01-04T04:33:24.701Z,9.98
2019-01-04T04:35:54.671Z,10.40
2019-01-04T04:38:24.626Z,9.43
2019-01-04T04:40:54.604Z,10.25
2019-01-04T04:43:24.670Z,10.48
2019-01-04T04:45:54.653Z,10.35
2019-01-04T04:48:24.688Z,9.60
2019-01-04T04:50:54.766Z,9.58
2019-01-04T04:53:24.745Z,10.28
2019-01-04T04:55:54.713Z,9.50
2019-01-04T04:58:24.789Z,10.23
2019-01-04T05:00:54.821Z,10.38
2019-01-04T05:03:24.897Z,9.73
2019-01-04T05:05:54.972Z,9.88
2019-01-04T05:08:26.946Z,11.60
2019-01-04T05:10:58.419Z,10.45
2019-01-04T05:13:28.547Z,9.65
2019-01-04T05:15:58.629Z,10.40
2019-01-04T05:18:28.673Z,9.55
2019-01-04T05:20:58.666Z,9.55
2019-01-04T05:23:28.732Z,11.53
2019-01-04T05:25:58.701Z,9.40
2019-01-04T05:28:28.756Z,9.58
2019-01-04T05:30:58.846Z,9.65
2019-01-04T05:33:28.941Z,10.70
2019-01-04T05:35:59.001Z,10.63
2019-01-04T05:38:29.190Z,10.88
2019-01-04T05:40:59.259Z,11.57
2019-01-04T05:43:29.248Z,10.07
2019-01-04T05:45:59.292Z,10.00
2019-01-04T05:48:29.249Z,11.10
2019-01-04T05:50:59.209Z,11.10
2019-01-04T05:53:29.168Z,9.95
2019-01-04T05:55:59.244Z,11.68
2019-01-04T05:58:29.208Z,9.75
2019-01-04T06:00:59.170Z,10.05
2019-01-04T06:03:29.038Z,8.50
2019-01-04T06:05:59.217Z,10.00
2019-01-04T06:08:29.101Z,10.90
2019-01-04T06:10:59.232Z,10.03
2019-01-04T06:13:30.200Z,10.58
2019-01-04T06:16:00.181Z,9.60
2019-01-04T06:18:30.360Z,10.18
2019-01-04T06:21:00.317Z,9.80
2019-01-04T06:23:30.588Z,9.55
2019-01-04T06:26:00.679Z,9.28
2019-01-04T06:28:30.646Z,11.48
2019-01-04T06:31:00.692Z,9.75
2019-01-04T06:33:30.669Z,9.83
2019-01-04T06:36:00.769Z,11.43
2019-01-04T06:38:30.916Z,9.05
2019-01-04T06:41:00.872Z,10.32
2019-01-04T06:43:31.017Z,11.30
2019-01-04T06:46:00.981Z,10.23
2019-01-04T06:48:30.989Z,10.00
2019-01-04T06:51:01.136Z,12.18
2019-01-04T06:53:31.233Z,11.23
2019-01-04T06:56:02.886Z,10.82
2019-01-04T06:58:32.932Z,10.45
2019-01-04T07:01:03.116Z,11.10
2019-01-04T07:03:32.964Z,10.35
2019-01-04T07:06:03.138Z,12.27
2019-01-04T07:08:33.088Z,11.22
2019-01-04T07:11:04.373Z,15.20
2019-01-04T07:13:34.453Z,12.23
2019-01-04T07:16:04.533Z,12.55
2019-01-04T07:18:34.575Z,12.43
2019-01-04T07:21:04.488Z,11.57
2019-01-04T07:23:34.517Z,10.53
2019-01-04T07:26:04.484Z,10.78
2019-01-04T07:28:34.655Z,11.03
2019-01-04T07:31:04.862Z,12.00
2019-01-04T07:33:34.922Z,12.53
2019-01-04T07:36:04.983Z,9.90
2019-01-04T07:38:35.143Z,11.37
2019-01-04T07:41:04.322Z,10.10
2019-01-04T07:43:33.587Z,10.55
2019-01-04T07:46:03.600Z,11.33
2019-01-04T07:48:33.872Z,11.00
2019-01-04T07:51:03.946Z,12.73
2019-01-04T07:53:33.954Z,12.23
2019-01-04T07:56:04.004Z,14.58
2019-01-04T07:58:34.355Z,11.18
2019-01-04T08:01:04.713Z,11.43
2019-01-04T08:03:34.782Z,10.60
2019-01-04T08:06:05.046Z,12.80
2019-01-04T08:08:35.073Z,10.00
2019-01-04T08:11:05.168Z,10.23
2019-01-04T08:13:35.160Z,11.90
2019-01-04T08:16:05.220Z,13.55
2019-01-04T08:18:35.308Z,10.60
2019-01-04T08:21:05.552Z,10.85
2019-01-04T08:23:36.359Z,11.53
2019-01-04T08:26:07.332Z,11.65
2019-01-04T08:28:37.606Z,9.33
2019-01-04T08:31:07.671Z,11.75
2019-01-04T08:33:37.753Z,10.37
2019-01-04T08:36:07.688Z,10.85
2019-01-04T08:38:38.099Z,11.17
2019-01-04T08:41:08.589Z,10.72
2019-01-04T08:43:39.028Z,10.18
2019-01-04T08:46:09.457Z,11.48
2019-01-04T08:48:39.697Z,11.22
2019-01-04T08:51:10.052Z,12.63
2019-01-04T08:54:02.440Z,10.32
2019-01-04T08:56:34.984Z,13.70
2019-01-04T08:59:05.752Z,12.98
2019-01-04T09:01:37.205Z,11.28
2019-01-04T09:04:07.932Z,11.97
2019-01-04T09:06:39.140Z,11.00
2019-01-04T09:09:10.354Z,11.48
2019-01-04T09:11:40.883Z,12.18
2019-01-04T09:14:11.309Z,10.78
2019-01-04T09:16:41.518Z,10.82
2019-01-04T09:19:12.024Z,10.50
2019-01-04T09:21:42.165Z,9.70
2019-01-04T09:24:12.571Z,10.13
2019-01-04T09:26:42.604Z,12.93
2019-01-04T09:29:12.673Z,10.17
2019-01-04T09:31:42.745Z,12.85
2019-01-04T09:34:12.712Z,12.60
2019-01-04T09:36:42.762Z,9.60
2019-01-04T09:39:12.717Z,10.93
2019-01-04T09:41:45.785Z,9.78
2019-01-04T09:44:15.949Z,11.03
2019-01-04T09:46:46.264Z,11.00
2019-01-04T09:49:16.685Z,11.18
2019-01-04T09:51:46.878Z,11.03
2019-01-04T09:54:16.909Z,12.60
2019-01-04T09:56:46.893Z,10.15
2019-01-04T09:59:17.051Z,16.77
2019-01-04T10:01:47.028Z,13.43
2019-01-04T10:04:16.980Z,11.63
2019-01-04T10:06:46.871Z,12.90
2019-01-04T10:09:16.873Z,11.55
2019-01-04T10:11:47.140Z,13.90
2019-01-04T10:14:17.330Z,11.93
2019-01-04T10:16:46.719Z,10.75
2019-01-04T10:19:17.032Z,10.05
2019-01-04T10:21:47.001Z,10.78
2019-01-04T10:24:17.378Z,9.88
2019-01-04T10:26:47.651Z,11.35
2019-01-04T10:29:17.832Z,14.23
2019-01-04T10:31:47.124Z,12.47
2019-01-04T10:34:17.260Z,11.05
2019-01-04T10:36:48.800Z,10.23
2019-01-04T10:39:18.808Z,11.20
2019-01-04T10:41:48.973Z,13.80
2019-01-04T10:44:19.053Z,11.03
2019-01-04T10:46:48.988Z,10.25
2019-01-04T10:49:18.992Z,11.68
2019-01-04T10:51:49.243Z,12.47
2019-01-04T10:54:19.754Z,11.93
2019-01-04T10:56:49.900Z,12.58
2019-01-04T10:59:19.876Z,12.57
2019-01-04T11:01:50.445Z,9.65
2019-01-04T11:04:21.149Z,11.50
2019-01-04T11:06:50.859Z,11.93
2019-01-04T11:09:20.964Z,13.13
2019-01-04T11:11:50.264Z,13.43
2019-01-04T11:14:20.177Z,10.40
2019-01-04T11:16:50.077Z,12.18
2019-01-04T11:19:20.255Z,13.50
2019-01-04T11:21:52.127Z,13.90
2019-01-04T11:25:27.557Z,10.53
2019-01-04T11:28:11.753Z,13.25
2019-01-04T11:30:57.440Z,10.70
2019-01-04T11:33:56.847Z,11.93
2019-01-04T11:36:42.941Z,11.48
2019-01-04T11:39:32.768Z,12.50
2019-01-04T11:42:34.983Z,12.78
2019-01-04T11:45:53.237Z,12.05
2019-01-04T11:48:58.392Z,12.82
2019-01-04T11:52:02.792Z,12.93
2019-01-04T11:54:32.969Z,13.68
2019-01-04T11:57:02.931Z,9.88
2019-01-04T11:59:32.801Z,8.90
2019-01-04T12:02:03.059Z,11.45
2019-01-04T12:04:33.126Z,10.95
2019-01-04T12:07:03.112Z,10.35
2019-01-04T12:09:33.174Z,8.95
2019-01-04T12:12:03.250Z,13.30
2019-01-04T12:14:33.194Z,11.20
2019-01-04T12:17:02.955Z,10.30
2019-01-04T12:19:33.072Z,10.03
2019-01-04T12:22:03.104Z,9.68
2019-01-04T12:24:36.808Z,12.37
2019-01-04T12:27:07.732Z,11.00
2019-01-04T12:29:38.082Z,13.58
2019-01-04T12:32:08.228Z,10.78
2019-01-04T12:34:38.834Z,11.22
2019-01-04T12:37:08.788Z,9.58
2019-01-04T12:39:38.844Z,9.80
2019-01-04T12:42:08.827Z,10.32
2019-01-04T12:44:39.096Z,11.30
2019-01-04T12:47:09.257Z,11.63
2019-01-04T12:49:39.317Z,13.55
2019-01-04T12:52:09.945Z,13.22
2019-01-04T12:54:39.988Z,13.03
2019-01-04T12:57:09.925Z,13.95
2019-01-04T12:59:40.096Z,13.58
2019-01-04T13:02:10.174Z,14.00
2019-01-04T13:04:40.136Z,10.50
2019-01-04T13:07:10.213Z,12.63
2019-01-04T13:09:40.299Z,12.43
2019-01-04T13:12:10.444Z,15.35
2019-01-04T13:14:40.914Z,17.92
2019-01-04T13:17:11.309Z,18.12
2019-01-04T13:19:41.974Z,15.20
2019-01-04T13:22:12.169Z,13.40
2019-01-04T13:24:42.216Z,15.40
2019-01-04T13:27:12.276Z,13.00
2019-01-04T13:29:42.269Z,15.45
2019-01-04T13:32:12.257Z,16.95
2019-01-04T13:34:42.774Z,16.15
2019-01-04T13:37:13.000Z,12.25
2019-01-04T13:39:43.142Z,12.00
2019-01-04T13:42:13.260Z,12.67
2019-01-04T13:44:43.310Z,11.50
2019-01-04T13:47:13.492Z,18.73
2019-01-04T13:49:44.686Z,19.62
2019-01-04T13:52:15.060Z,17.90
2019-01-04T13:54:45.228Z,15.13
2019-01-04T13:57:15.425Z,11.40
2019-01-04T13:59:45.629Z,13.43
2019-01-04T14:02:15.555Z,18.10
2019-01-04T14:04:45.596Z,16.52
2019-01-04T14:07:15.482Z,13.13
2019-01-04T14:09:44.624Z,9.78
2019-01-04T14:12:13.789Z,12.80
2019-01-04T14:14:43.064Z,12.90
2019-01-04T14:17:13.196Z,14.67
2019-01-04T14:19:43.236Z,14.07
2019-01-04T14:22:13.728Z,15.00
2019-01-04T14:24:43.796Z,19.97
2019-01-04T14:27:13.861Z,15.43
2019-01-04T14:29:43.965Z,16.73
2019-01-04T14:32:14.001Z,17.30
2019-01-04T14:34:43.849Z,19.97
2019-01-04T14:37:13.920Z,15.13
2019-01-04T14:39:43.388Z,17.82
2019-01-04T14:42:14.160Z,11.80
2019-01-04T14:44:44.448Z,16.75
2019-01-04T14:47:14.424Z,11.88
2019-01-04T14:49:44.728Z,14.57
2019-01-04T14:52:14.684Z,11.22
2019-01-04T14:54:44.556Z,10.28
2019-01-04T14:57:14.613Z,13.03
2019-01-04T14:59:44.592Z,18.67
2019-01-04T15:02:14.641Z,16.90
2019-01-04T15:04:44.728Z,12.67
2019-01-04T15:07:14.726Z,10.45
2019-01-04T15:09:44.760Z,13.68
2019-01-04T15:12:14.963Z,13.62
2019-01-04T15:14:45.099Z,12.40
2019-01-04T15:17:15.150Z,18.85
2019-01-04T15:19:45.252Z,14.63
2019-01-04T15:22:15.181Z,14.03
2019-01-04T15:24:44.276Z,20.53
2019-01-04T15:27:13.654Z,18.57
2019-01-04T15:29:43.040Z,13.30
2019-01-04T15:32:13.110Z,16.32
2019-01-04T15:34:43.383Z,18.42
2019-01-04T15:37:13.557Z,16.42
2019-01-04T15:39:43.732Z,11.13
2019-01-04T15:42:13.781Z,14.10
2019-01-04T15:44:43.965Z,18.33
2019-01-04T15:47:14.080Z,19.20
2019-01-04T15:49:44.096Z,12.05
2019-01-04T15:52:14.261Z,11.55
2019-01-04T15:54:44.749Z,19.57
2019-01-04T15:57:14.894Z,19.05
2019-01-04T15:59:44.192Z,10.80
2019-01-04T16:02:14.540Z,21.75
2019-01-04T16:04:44.504Z,23.38
2019-01-04T16:07:14.480Z,19.05
2019-01-04T16:09:44.528Z,20.27
2019-01-04T16:12:14.652Z,23.07
2019-01-04T16:14:44.809Z,22.93
2019-01-04T16:17:14.793Z,18.97
2019-01-04T16:19:44.948Z,15.15
2019-01-04T16:22:15.036Z,16.40
2019-01-04T16:24:45.094Z,12.40
2019-01-04T16:27:15.064Z,13.03
2019-01-04T16:29:45.112Z,14.43
2019-01-04T16:32:15.208Z,18.03
2019-01-04T16:34:45.256Z,16.73
2019-01-04T16:37:15.337Z,20.67
2019-01-04T16:39:45.391Z,12.00
2019-01-04T16:42:15.472Z,13.87
2019-01-04T16:44:45.534Z,22.87
2019-01-04T16:47:15.615Z,20.70
2019-01-04T16:49:45.652Z,22.98
2019-01-04T16:52:16.054Z,17.37
2019-01-04T16:54:47.276Z,20.20
2019-01-04T16:57:17.728Z,22.48
2019-01-04T16:59:47.787Z,18.50
2019-01-04T17:02:17.955Z,13.25
2019-01-04T17:04:47.939Z,22.50
2019-01-04T17:07:18.198Z,20.17
2019-01-04T17:09:50.304Z,23.45
2019-01-04T17:12:20.337Z,23.27
2019-01-04T17:14:50.685Z,18.10
2019-01-04T17:17:20.920Z,23.12
2019-01-04T17:19:51.050Z,11.68
2019-01-04T17:22:22.706Z,17.00
2019-01-04T17:24:52.509Z,18.92
2019-01-04T17:27:22.552Z,15.48
2019-01-04T17:29:52.436Z,19.92
2019-01-04T17:32:22.497Z,24.45
2019-01-04T17:34:52.661Z,11.88
2019-01-04T17:37:22.736Z,20.02
2019-01-04T17:39:52.928Z,15.55
2019-01-04T17:42:23.171Z,13.25
2019-01-04T17:44:53.437Z,24.80
2019-01-04T17:47:23.821Z,14.33
2019-01-04T17:49:54.427Z,18.75
2019-01-04T17:52:24.780Z,26.02
2019-01-04T17:54:54.961Z,11.38
2019-01-04T17:57:25.682Z,24.25
2019-01-04T17:59:55.804Z,25.43
2019-01-04T18:02:25.862Z,29.40
2019-01-04T18:04:56.148Z,25.95
2019-01-04T18:07:26.411Z,20.40
2019-01-04T18:09:56.497Z,26.97
2019-01-04T18:12:26.557Z,22.62
2019-01-04T18:14:56.719Z,11.57
2019-01-04T18:17:26.888Z,23.42
2019-01-04T18:19:56.963Z,15.55
2019-01-04T18:22:27.288Z,16.30
2019-01-04T18:24:57.484Z,12.65
2019-01-04T18:27:27.628Z,11.22
2019-01-04T18:29:57.715Z,26.73
2019-01-04T18:32:28.980Z,12.53
2019-01-04T18:34:59.148Z,24.72
2019-01-04T18:37:30.966Z,27.40
2019-01-04T18:40:00.176Z,26.60
2019-01-04T18:42:30.193Z,21.37
2019-01-04T18:45:00.344Z,16.57
2019-01-04T18:47:30.528Z,16.60
2019-01-04T18:50:00.677Z,16.77
2019-01-04T18:52:30.866Z,14.15
2019-01-04T18:55:01.030Z,15.38
2019-01-04T18:57:31.001Z,17.87
2019-01-04T19:00:00.736Z,16.27
2019-01-04T19:02:30.924Z,21.12
2019-01-04T19:05:01.350Z,17.23
2019-01-04T19:07:31.372Z,14.58
2019-01-04T19:10:01.757Z,13.70
2019-01-04T19:12:31.935Z,19.62
2019-01-04T19:15:02.456Z,15.98
2019-01-04T19:17:32.569Z,27.37
2019-01-04T19:20:02.471Z,11.63
2019-01-04T19:22:32.541Z,18.42
2019-01-04T19:25:02.620Z,28.50
2019-01-04T19:27:32.677Z,25.75
2019-01-04T19:30:02.853Z,17.17
2019-01-04T19:32:32.811Z,25.90
2019-01-04T19:35:02.788Z,28.05
2019-01-04T19:37:32.849Z,21.95
2019-01-04T19:40:02.920Z,23.05
2019-01-04T19:42:34.002Z,26.62
2019-01-04T19:45:04.074Z,22.50
2019-01-04T19:47:34.247Z,13.65
2019-01-04T19:50:19.397Z,21.93
2019-01-04T19:52:49.528Z,17.45
2019-01-04T19:55:18.709Z,14.53
2019-01-04T19:57:48.001Z,24.90
2019-01-04T20:00:17.329Z,12.10
2019-01-04T20:02:47.611Z,19.65
2019-01-04T20:05:19.422Z,12.65
2019-01-04T20:08:21.162Z,23.85
2019-01-04T20:12:19.618Z,13.70
2019-01-04T20:15:33.717Z,21.70
2019-01-04T20:18:36.093Z,17.63
2019-01-04T20:21:23.620Z,18.25
2019-01-04T20:24:21.770Z,11.20
2019-01-04T20:27:13.626Z,12.00
2019-01-04T20:30:01.334Z,15.35
2019-01-04T20:32:59.399Z,15.50
2019-01-04T20:35:47.236Z,12.88
2019-01-04T20:38:34.892Z,10.07
2019-01-04T20:41:32.632Z,10.55
2019-01-04T20:44:22.873Z,13.60
2019-01-04T20:47:11.665Z,19.40
2019-01-04T20:49:59.553Z,12.78
2019-01-04T20:52:51.471Z,14.87
2019-01-04T20:55:40.185Z,12.20
2019-01-04T20:58:44.649Z,11.83
2019-01-04T21:01:42.868Z,12.95
2019-01-04T21:04:34.732Z,10.58
2019-01-04T21:07:24.126Z,15.93
2019-01-04T21:10:15.520Z,11.88
2019-01-04T21:13:04.408Z,18.10
2019-01-04T21:15:53.130Z,15.60
2019-01-04T21:18:54.611Z,14.33
2019-01-04T21:21:46.338Z,16.17
2019-01-04T21:24:47.054Z,13.80
2019-01-04T21:27:36.339Z,15.45
2019-01-04T21:30:25.222Z,17.10
2019-01-04T21:33:12.936Z,15.03
2019-01-04T21:36:02.688Z,16.75
2019-01-04T21:39:10.411Z,17.23
2019-01-04T21:42:05.013Z,19.73
2019-01-04T21:44:54.994Z,21.73
2019-01-04T21:47:55.900Z,19.98
2019-01-04T21:50:53.260Z,12.03
2019-01-04T21:54:00.895Z,10.60
2019-01-04T21:56:49.745Z,17.90
2019-01-04T21:59:38.565Z,19.15
2019-01-04T22:02:44.305Z,12.05
2019-01-04T22:05:31.545Z,16.10
2019-01-04T22:08:15.488Z,12.27
2019-01-04T22:11:03.119Z,15.93
2019-01-04T22:13:57.942Z,23.50
2019-01-04T22:16:59.266Z,23.10
2019-01-04T22:19:47.001Z,22.32
2019-01-04T22:22:35.067Z,12.82
2019-01-04T22:25:22.797Z,13.15
2019-01-04T22:28:20.769Z,15.48
2019-01-04T22:31:11.653Z,18.40
2019-01-04T22:34:01.257Z,15.23
2019-01-04T22:36:41.509Z,20.40
2019-01-04T22:39:28.009Z,12.00
2019-01-04T22:42:16.944Z,18.87
2019-01-04T22:45:15.120Z,11.37
2019-01-04T22:48:07.262Z,10.75
2019-01-04T22:50:55.115Z,15.23
2019-01-04T22:54:02.588Z,10.82
2019-01-04T22:56:54.475Z,18.73
2019-01-04T22:59:46.493Z,10.85
2019-01-04T23:02:35.429Z,11.45
2019-01-04T23:05:33.608Z,18.60
2019-01-04T23:08:34.564Z,11.08
2019-01-04T23:11:22.363Z,15.25
2019-01-04T23:14:11.221Z,10.15
2019-01-04T23:17:09.322Z,17.70
2019-01-04T23:19:58.239Z,13.35
2019-01-04T23:23:10.071Z,17.10
2019-01-04T23:26:11.597Z,16.40
2019-01-04T23:29:14.484Z,11.93
2019-01-04T23:32:15.861Z,14.55
2019-01-04T23:35:03.800Z,10.80
2019-01-04T23:38:01.744Z,12.93
2019-01-04T23:41:00.962Z,11.95
2019-01-04T23:43:42.124Z,11.45
2019-01-04T23:46:31.111Z,14.90
2019-01-04T23:49:23.216Z,10.38
2019-01-04T23:52:10.780Z,11.43
2019-01-04T23:55:07.313Z,17.63
2019-01-04T23:57:55.121Z,11.13
